sensor_id;sensor_type;location;lat;lon;timestamp;temperature;humidity
59128;DHT22;44912;52.754;5.994;2022-10-16T00:01:10;13.00;99.90
59128;DHT22;44912;52.754;5.994;2022-10-16T00:03:37;13.00;99.90
59128;DHT22;44912;52.754;5.994;2022-10-16T00:06:04;13.00;99.90
59128;DHT22;44912;52.754;5.994;2022-10-16T00:08:30;13.00;99.90
59128;DHT22;44912;52.754;5.994;2022-10-16T00:11:00;13.00;99.90
59128;DHT22;44912;52.754;5.994;2022-10-16T00:13:26;13.00;99.90
59128;DHT22;44912;52.754;5.994;2022-10-16T00:15:55;13.00;99.90
59128;DHT22;44912;52.754;5.994;2022-10-16T00:18:21;13.00;99.90
59128;DHT22;44912;52.754;5.994;2022-10-16T00:20:46;13.00;99.90
59128;DHT22;44912;52.754;5.994;2022-10-16T00:23:12;13.00;99.90
59128;DHT22;44912;52.754;5.994;2022-10-16T00:25:38;12.90;99.90
59128;DHT22;44912;52.754;5.994;2022-10-16T00:28:03;12.90;99.90
59128;DHT22;44912;52.754;5.994;2022-10-16T00:30:29;12.90;99.90
59128;DHT22;44912;52.754;5.994;2022-10-16T00:32:55;12.90;99.90
59128;DHT22;44912;52.754;5.994;2022-10-16T00:35:20;12.90;99.90
59128;DHT22;44912;52.754;5.994;2022-10-16T00:37:46;12.90;99.90
59128;DHT22;44912;52.754;5.994;2022-10-16T00:40:11;12.90;99.90
59128;DHT22;44912;52.754;5.994;2022-10-16T00:42:37;12.90;99.90
59128;DHT22;44912;52.754;5.994;2022-10-16T00:45:04;12.90;99.90
59128;DHT22;44912;52.754;5.994;2022-10-16T00:52:32;12.90;99.90
59128;DHT22;44912;52.754;5.994;2022-10-16T00:54:58;12.90;99.90
59128;DHT22;44912;52.754;5.994;2022-10-16T00:57:24;13.00;99.90
59128;DHT22;44912;52.754;5.994;2022-10-16T00:59:50;13.00;99.90
59128;DHT22;44912;52.754;5.994;2022-10-16T01:02:16;13.00;99.90
59128;DHT22;44912;52.754;5.994;2022-10-16T01:04:48;13.00;99.90
59128;DHT22;44912;52.754;5.994;2022-10-16T01:15:27;13.10;99.90
59128;DHT22;44912;52.754;5.994;2022-10-16T01:20:35;13.00;99.90
59128;DHT22;44912;52.754;5.994;2022-10-16T01:31:25;13.10;99.90
59128;DHT22;44912;52.754;5.994;2022-10-16T01:34:01;13.10;99.90
59128;DHT22;44912;52.754;5.994;2022-10-16T01:36:34;13.10;99.90
59128;DHT22;44912;52.754;5.994;2022-10-16T01:39:01;13.10;99.90
59128;DHT22;44912;52.754;5.994;2022-10-16T01:41:32;13.10;99.90
59128;DHT22;44912;52.754;5.994;2022-10-16T01:44:06;13.10;99.90
59128;DHT22;44912;52.754;5.994;2022-10-16T01:46:37;13.10;99.90
59128;DHT22;44912;52.754;5.994;2022-10-16T01:49:03;13.10;99.90
59128;DHT22;44912;52.754;5.994;2022-10-16T01:51:29;13.10;99.90
59128;DHT22;44912;52.754;5.994;2022-10-16T01:53:58;13.10;99.90
59128;DHT22;44912;52.754;5.994;2022-10-16T01:56:25;13.00;99.90
59128;DHT22;44912;52.754;5.994;2022-10-16T01:59:02;13.10;99.90
59128;DHT22;44912;52.754;5.994;2022-10-16T02:01:31;13.10;99.90
59128;DHT22;44912;52.754;5.994;2022-10-16T02:04:07;13.00;99.90
59128;DHT22;44912;52.754;5.994;2022-10-16T02:06:33;13.10;99.90
59128;DHT22;44912;52.754;5.994;2022-10-16T02:09:00;13.10;99.90
59128;DHT22;44912;52.754;5.994;2022-10-16T02:11:25;13.10;99.90
59128;DHT22;44912;52.754;5.994;2022-10-16T02:13:55;13.00;99.90
59128;DHT22;44912;52.754;5.994;2022-10-16T02:16:50;13.00;99.90
59128;DHT22;44912;52.754;5.994;2022-10-16T02:19:17;13.00;99.90
59128;DHT22;44912;52.754;5.994;2022-10-16T02:21:56;13.00;99.90
59128;DHT22;44912;52.754;5.994;2022-10-16T02:24:33;13.10;99.90
59128;DHT22;44912;52.754;5.994;2022-10-16T02:27:15;13.00;99.90
59128;DHT22;44912;52.754;5.994;2022-10-16T02:29:47;13.00;99.90
59128;DHT22;44912;52.754;5.994;2022-10-16T02:32:21;13.10;99.90
59128;DHT22;44912;52.754;5.994;2022-10-16T02:34:49;13.00;99.90
59128;DHT22;44912;52.754;5.994;2022-10-16T02:37:17;13.00;99.90
59128;DHT22;44912;52.754;5.994;2022-10-16T02:39:43;13.00;99.90
59128;DHT22;44912;52.754;5.994;2022-10-16T02:42:13;13.00;99.90
59128;DHT22;44912;52.754;5.994;2022-10-16T02:44:39;13.10;99.90
59128;DHT22;44912;52.754;5.994;2022-10-16T02:47:04;13.10;99.90
59128;DHT22;44912;52.754;5.994;2022-10-16T02:49:30;13.20;99.90
59128;DHT22;44912;52.754;5.994;2022-10-16T02:51:55;13.20;99.90
59128;DHT22;44912;52.754;5.994;2022-10-16T02:54:21;13.20;99.90
59128;DHT22;44912;52.754;5.994;2022-10-16T02:56:46;13.20;99.90
59128;DHT22;44912;52.754;5.994;2022-10-16T02:59:12;13.30;99.90
59128;DHT22;44912;52.754;5.994;2022-10-16T03:01:38;13.30;99.90
59128;DHT22;44912;52.754;5.994;2022-10-16T03:04:03;13.30;99.90
59128;DHT22;44912;52.754;5.994;2022-10-16T03:06:29;13.30;99.90
59128;DHT22;44912;52.754;5.994;2022-10-16T03:08:54;13.30;99.90
59128;DHT22;44912;52.754;5.994;2022-10-16T03:11:20;13.30;99.90
59128;DHT22;44912;52.754;5.994;2022-10-16T03:13:45;13.30;99.90
59128;DHT22;44912;52.754;5.994;2022-10-16T03:16:11;13.30;99.90
59128;DHT22;44912;52.754;5.994;2022-10-16T03:18:37;13.30;99.90
59128;DHT22;44912;52.754;5.994;2022-10-16T03:21:02;13.30;99.90
59128;DHT22;44912;52.754;5.994;2022-10-16T03:23:28;13.30;99.90
59128;DHT22;44912;52.754;5.994;2022-10-16T03:25:54;13.30;99.90
59128;DHT22;44912;52.754;5.994;2022-10-16T03:28:19;13.30;99.90
59128;DHT22;44912;52.754;5.994;2022-10-16T03:30:45;13.30;99.90
59128;DHT22;44912;52.754;5.994;2022-10-16T03:33:10;13.30;99.90
59128;DHT22;44912;52.754;5.994;2022-10-16T03:35:36;13.30;99.90
59128;DHT22;44912;52.754;5.994;2022-10-16T03:38:01;13.30;99.90
59128;DHT22;44912;52.754;5.994;2022-10-16T03:40:27;13.30;99.90
59128;DHT22;44912;52.754;5.994;2022-10-16T03:42:53;13.30;99.90
59128;DHT22;44912;52.754;5.994;2022-10-16T03:45:22;13.30;99.90
59128;DHT22;44912;52.754;5.994;2022-10-16T03:47:48;13.30;99.90
59128;DHT22;44912;52.754;5.994;2022-10-16T03:50:13;13.30;99.90
59128;DHT22;44912;52.754;5.994;2022-10-16T03:52:39;13.30;99.90
59128;DHT22;44912;52.754;5.994;2022-10-16T03:55:05;13.30;99.90
59128;DHT22;44912;52.754;5.994;2022-10-16T03:57:31;13.20;99.90
59128;DHT22;44912;52.754;5.994;2022-10-16T03:59:56;13.20;99.90
59128;DHT22;44912;52.754;5.994;2022-10-16T04:02:22;13.20;99.90
59128;DHT22;44912;52.754;5.994;2022-10-16T04:04:47;13.10;99.90
59128;DHT22;44912;52.754;5.994;2022-10-16T04:07:13;13.10;99.90
59128;DHT22;44912;52.754;5.994;2022-10-16T04:09:38;13.10;99.90
59128;DHT22;44912;52.754;5.994;2022-10-16T04:12:04;13.10;99.90
59128;DHT22;44912;52.754;5.994;2022-10-16T04:14:29;13.10;99.90
59128;DHT22;44912;52.754;5.994;2022-10-16T04:16:55;13.10;99.90
59128;DHT22;44912;52.754;5.994;2022-10-16T04:19:20;13.10;99.90
59128;DHT22;44912;52.754;5.994;2022-10-16T04:21:46;13.00;99.90
59128;DHT22;44912;52.754;5.994;2022-10-16T04:24:11;13.10;99.90
59128;DHT22;44912;52.754;5.994;2022-10-16T04:26:37;13.10;99.90
59128;DHT22;44912;52.754;5.994;2022-10-16T04:29:03;13.10;99.90
59128;DHT22;44912;52.754;5.994;2022-10-16T04:31:28;13.10;99.90
59128;DHT22;44912;52.754;5.994;2022-10-16T04:33:54;13.10;99.90
59128;DHT22;44912;52.754;5.994;2022-10-16T04:36:19;13.20;99.90
59128;DHT22;44912;52.754;5.994;2022-10-16T04:38:45;13.20;99.90
59128;DHT22;44912;52.754;5.994;2022-10-16T04:41:10;13.20;99.90
59128;DHT22;44912;52.754;5.994;2022-10-16T04:43:36;13.20;99.90
59128;DHT22;44912;52.754;5.994;2022-10-16T04:46:01;13.20;99.90
59128;DHT22;44912;52.754;5.994;2022-10-16T04:48:30;13.20;99.90
59128;DHT22;44912;52.754;5.994;2022-10-16T04:50:55;13.20;99.90
59128;DHT22;44912;52.754;5.994;2022-10-16T04:53:21;13.20;99.90
59128;DHT22;44912;52.754;5.994;2022-10-16T04:55:46;13.20;99.90
59128;DHT22;44912;52.754;5.994;2022-10-16T04:58:12;13.20;99.90
59128;DHT22;44912;52.754;5.994;2022-10-16T05:00:38;13.20;99.90
59128;DHT22;44912;52.754;5.994;2022-10-16T05:03:04;13.20;99.90
59128;DHT22;44912;52.754;5.994;2022-10-16T05:05:33;13.20;99.90
59128;DHT22;44912;52.754;5.994;2022-10-16T05:07:58;13.20;99.90
59128;DHT22;44912;52.754;5.994;2022-10-16T05:10:24;13.20;99.90
59128;DHT22;44912;52.754;5.994;2022-10-16T05:12:49;13.20;99.90
59128;DHT22;44912;52.754;5.994;2022-10-16T05:15:17;13.20;99.90
59128;DHT22;44912;52.754;5.994;2022-10-16T05:17:42;13.10;99.90
59128;DHT22;44912;52.754;5.994;2022-10-16T05:20:08;13.10;99.90
59128;DHT22;44912;52.754;5.994;2022-10-16T05:22:33;13.10;99.90
59128;DHT22;44912;52.754;5.994;2022-10-16T05:24:59;13.10;99.90
59128;DHT22;44912;52.754;5.994;2022-10-16T05:27:25;13.10;99.90
59128;DHT22;44912;52.754;5.994;2022-10-16T05:29:50;13.10;99.90
59128;DHT22;44912;52.754;5.994;2022-10-16T05:32:17;13.00;99.90
59128;DHT22;44912;52.754;5.994;2022-10-16T05:34:43;13.00;99.90
59128;DHT22;44912;52.754;5.994;2022-10-16T05:37:09;12.90;99.90
59128;DHT22;44912;52.754;5.994;2022-10-16T05:39:35;12.90;99.90
59128;DHT22;44912;52.754;5.994;2022-10-16T05:42:02;12.90;99.90
59128;DHT22;44912;52.754;5.994;2022-10-16T05:44:27;12.90;99.90
59128;DHT22;44912;52.754;5.994;2022-10-16T05:46:53;12.90;99.90
59128;DHT22;44912;52.754;5.994;2022-10-16T05:49:18;12.90;99.90
59128;DHT22;44912;52.754;5.994;2022-10-16T05:51:44;12.90;99.90
59128;DHT22;44912;52.754;5.994;2022-10-16T05:54:10;12.90;99.90
59128;DHT22;44912;52.754;5.994;2022-10-16T05:56:35;12.80;99.90
59128;DHT22;44912;52.754;5.994;2022-10-16T05:59:02;12.80;99.90
59128;DHT22;44912;52.754;5.994;2022-10-16T06:01:28;12.90;99.90
59128;DHT22;44912;52.754;5.994;2022-10-16T06:03:53;12.90;99.90
59128;DHT22;44912;52.754;5.994;2022-10-16T06:06:21;12.90;99.90
59128;DHT22;44912;52.754;5.994;2022-10-16T06:08:47;12.90;99.90
59128;DHT22;44912;52.754;5.994;2022-10-16T06:11:16;12.90;99.90
59128;DHT22;44912;52.754;5.994;2022-10-16T06:13:42;12.90;99.90
59128;DHT22;44912;52.754;5.994;2022-10-16T06:16:09;12.90;99.90
59128;DHT22;44912;52.754;5.994;2022-10-16T06:18:35;13.00;99.90
59128;DHT22;44912;52.754;5.994;2022-10-16T06:21:10;13.00;99.90
59128;DHT22;44912;52.754;5.994;2022-10-16T06:23:36;13.00;99.90
59128;DHT22;44912;52.754;5.994;2022-10-16T06:26:10;13.00;99.90
59128;DHT22;44912;52.754;5.994;2022-10-16T06:28:36;13.00;99.90
59128;DHT22;44912;52.754;5.994;2022-10-16T06:31:04;13.00;99.90
59128;DHT22;44912;52.754;5.994;2022-10-16T06:33:30;13.00;99.90
59128;DHT22;44912;52.754;5.994;2022-10-16T06:36:03;13.10;99.90
59128;DHT22;44912;52.754;5.994;2022-10-16T06:38:30;13.10;99.90
59128;DHT22;44912;52.754;5.994;2022-10-16T06:40:55;13.10;99.90
59128;DHT22;44912;52.754;5.994;2022-10-16T06:43:21;13.10;99.90
59128;DHT22;44912;52.754;5.994;2022-10-16T06:45:54;13.10;99.90
59128;DHT22;44912;52.754;5.994;2022-10-16T06:48:20;13.20;99.90
59128;DHT22;44912;52.754;5.994;2022-10-16T06:50:58;13.20;99.90
59128;DHT22;44912;52.754;5.994;2022-10-16T06:53:24;13.20;99.90
59128;DHT22;44912;52.754;5.994;2022-10-16T06:55:50;13.20;99.90
59128;DHT22;44912;52.754;5.994;2022-10-16T06:58:16;13.20;99.90
59128;DHT22;44912;52.754;5.994;2022-10-16T07:00:42;13.20;99.90
59128;DHT22;44912;52.754;5.994;2022-10-16T07:03:07;13.30;99.90
59128;DHT22;44912;52.754;5.994;2022-10-16T07:05:37;13.30;99.90
59128;DHT22;44912;52.754;5.994;2022-10-16T07:08:03;13.30;99.90
59128;DHT22;44912;52.754;5.994;2022-10-16T07:10:31;13.30;99.90
59128;DHT22;44912;52.754;5.994;2022-10-16T07:12:56;13.40;99.90
59128;DHT22;44912;52.754;5.994;2022-10-16T07:15:22;13.40;99.90
59128;DHT22;44912;52.754;5.994;2022-10-16T07:17:48;13.40;99.90
59128;DHT22;44912;52.754;5.994;2022-10-16T07:20:13;13.50;99.90
59128;DHT22;44912;52.754;5.994;2022-10-16T07:22:39;13.50;99.90
59128;DHT22;44912;52.754;5.994;2022-10-16T07:25:05;13.50;99.90
59128;DHT22;44912;52.754;5.994;2022-10-16T07:27:30;13.50;99.90
59128;DHT22;44912;52.754;5.994;2022-10-16T07:29:56;13.60;99.90
59128;DHT22;44912;52.754;5.994;2022-10-16T07:32:21;13.60;99.90
59128;DHT22;44912;52.754;5.994;2022-10-16T07:34:47;13.60;99.90
59128;DHT22;44912;52.754;5.994;2022-10-16T07:37:12;13.70;99.90
59128;DHT22;44912;52.754;5.994;2022-10-16T07:39:38;13.70;99.90
59128;DHT22;44912;52.754;5.994;2022-10-16T07:42:03;13.70;99.90
59128;DHT22;44912;52.754;5.994;2022-10-16T07:44:29;13.80;99.90
59128;DHT22;44912;52.754;5.994;2022-10-16T07:46:55;13.90;99.90
59128;DHT22;44912;52.754;5.994;2022-10-16T07:49:20;13.90;99.90
59128;DHT22;44912;52.754;5.994;2022-10-16T07:51:46;14.00;99.90
59128;DHT22;44912;52.754;5.994;2022-10-16T07:54:11;14.00;99.90
59128;DHT22;44912;52.754;5.994;2022-10-16T07:56:37;14.10;99.90
59128;DHT22;44912;52.754;5.994;2022-10-16T07:59:02;14.10;99.90
59128;DHT22;44912;52.754;5.994;2022-10-16T08:01:28;14.00;99.90
59128;DHT22;44912;52.754;5.994;2022-10-16T08:03:53;14.10;99.90
59128;DHT22;44912;52.754;5.994;2022-10-16T08:06:20;14.00;99.90
59128;DHT22;44912;52.754;5.994;2022-10-16T08:08:47;14.00;99.90
59128;DHT22;44912;52.754;5.994;2022-10-16T08:11:13;14.00;99.90
59128;DHT22;44912;52.754;5.994;2022-10-16T08:13:40;14.00;99.90
59128;DHT22;44912;52.754;5.994;2022-10-16T08:16:06;14.00;99.90
59128;DHT22;44912;52.754;5.994;2022-10-16T08:18:36;13.90;99.90
59128;DHT22;44912;52.754;5.994;2022-10-16T08:21:02;13.90;99.90
59128;DHT22;44912;52.754;5.994;2022-10-16T08:23:29;13.90;99.90
59128;DHT22;44912;52.754;5.994;2022-10-16T08:25:55;13.90;99.90
59128;DHT22;44912;52.754;5.994;2022-10-16T08:28:22;14.00;99.90
59128;DHT22;44912;52.754;5.994;2022-10-16T08:30:48;14.00;99.90
59128;DHT22;44912;52.754;5.994;2022-10-16T08:33:13;14.20;99.90
59128;DHT22;44912;52.754;5.994;2022-10-16T08:35:39;14.20;99.90
59128;DHT22;44912;52.754;5.994;2022-10-16T08:38:06;14.30;99.90
59128;DHT22;44912;52.754;5.994;2022-10-16T08:40:33;14.40;99.90
59128;DHT22;44912;52.754;5.994;2022-10-16T08:48:51;14.50;99.90
59128;DHT22;44912;52.754;5.994;2022-10-16T08:51:26;14.50;99.90
59128;DHT22;44912;52.754;5.994;2022-10-16T08:53:58;14.60;99.90
59128;DHT22;44912;52.754;5.994;2022-10-16T08:56:25;14.70;99.90
59128;DHT22;44912;52.754;5.994;2022-10-16T08:58:52;14.60;99.90
59128;DHT22;44912;52.754;5.994;2022-10-16T09:01:19;14.70;99.90
59128;DHT22;44912;52.754;5.994;2022-10-16T09:12:12;14.90;99.90
59128;DHT22;44912;52.754;5.994;2022-10-16T09:18:01;15.00;99.90
59128;DHT22;44912;52.754;5.994;2022-10-16T09:23:12;15.10;99.90
59128;DHT22;44912;52.754;5.994;2022-10-16T09:25:39;15.20;99.90
59128;DHT22;44912;52.754;5.994;2022-10-16T09:28:08;15.30;99.90
59128;DHT22;44912;52.754;5.994;2022-10-16T09:30:35;15.40;99.90
59128;DHT22;44912;52.754;5.994;2022-10-16T09:33:01;15.50;99.90
59128;DHT22;44912;52.754;5.994;2022-10-16T09:35:36;15.60;99.90
59128;DHT22;44912;52.754;5.994;2022-10-16T09:38:02;15.60;99.90
59128;DHT22;44912;52.754;5.994;2022-10-16T09:40:35;15.70;99.90
59128;DHT22;44912;52.754;5.994;2022-10-16T09:43:22;15.70;99.90
59128;DHT22;44912;52.754;5.994;2022-10-16T09:46:00;15.80;99.90
59128;DHT22;44912;52.754;5.994;2022-10-16T09:51:02;16.00;99.90
59128;DHT22;44912;52.754;5.994;2022-10-16T09:53:41;16.10;99.90
59128;DHT22;44912;52.754;5.994;2022-10-16T09:56:06;16.10;99.90
59128;DHT22;44912;52.754;5.994;2022-10-16T09:58:33;16.20;99.90
59128;DHT22;44912;52.754;5.994;2022-10-16T10:00:59;16.30;99.90
59128;DHT22;44912;52.754;5.994;2022-10-16T10:03:37;16.30;99.90
59128;DHT22;44912;52.754;5.994;2022-10-16T10:06:22;16.20;99.90
59128;DHT22;44912;52.754;5.994;2022-10-16T10:09:04;16.10;99.90
59128;DHT22;44912;52.754;5.994;2022-10-16T10:11:40;16.20;99.90
59128;DHT22;44912;52.754;5.994;2022-10-16T10:14:16;16.30;99.90
59128;DHT22;44912;52.754;5.994;2022-10-16T10:16:42;16.40;99.90
59128;DHT22;44912;52.754;5.994;2022-10-16T10:19:22;16.50;99.90
59128;DHT22;44912;52.754;5.994;2022-10-16T10:21:50;16.40;99.90
59128;DHT22;44912;52.754;5.994;2022-10-16T10:24:18;16.30;99.90
59128;DHT22;44912;52.754;5.994;2022-10-16T10:26:57;16.40;99.90
59128;DHT22;44912;52.754;5.994;2022-10-16T10:32:20;16.50;99.90
59128;DHT22;44912;52.754;5.994;2022-10-16T10:45:53;16.60;99.90
59128;DHT22;44912;52.754;5.994;2022-10-16T10:48:57;16.50;99.90
59128;DHT22;44912;52.754;5.994;2022-10-16T10:54:07;16.40;99.90
59128;DHT22;44912;52.754;5.994;2022-10-16T10:57:18;16.50;99.90
59128;DHT22;44912;52.754;5.994;2022-10-16T11:00:23;16.60;99.90
59128;DHT22;44912;52.754;5.994;2022-10-16T11:11:02;16.30;99.90
59128;DHT22;44912;52.754;5.994;2022-10-16T11:13:45;16.30;99.90
59128;DHT22;44912;52.754;5.994;2022-10-16T11:16:44;16.30;99.90
59128;DHT22;44912;52.754;5.994;2022-10-16T11:22:23;16.20;99.90
59128;DHT22;44912;52.754;5.994;2022-10-16T11:30:24;16.10;99.90
59128;DHT22;44912;52.754;5.994;2022-10-16T11:35:59;16.10;99.90
59128;DHT22;44912;52.754;5.994;2022-10-16T11:38:34;16.20;99.90
59128;DHT22;44912;52.754;5.994;2022-10-16T11:41:23;16.40;99.90
59128;DHT22;44912;52.754;5.994;2022-10-16T11:47:35;16.70;99.90
59128;DHT22;44912;52.754;5.994;2022-10-16T11:49:36;16.70;99.90
59128;DHT22;44912;52.754;5.994;2022-10-16T11:52:07;16.70;99.90
59128;DHT22;44912;52.754;5.994;2022-10-16T11:54:52;16.60;99.90
59128;DHT22;44912;52.754;5.994;2022-10-16T11:57:32;16.60;99.90
59128;DHT22;44912;52.754;5.994;2022-10-16T12:00:04;16.60;99.90
59128;DHT22;44912;52.754;5.994;2022-10-16T12:08:13;16.70;99.90
59128;DHT22;44912;52.754;5.994;2022-10-16T12:10:41;16.80;99.90
59128;DHT22;44912;52.754;5.994;2022-10-16T12:13:27;16.80;99.90
59128;DHT22;44912;52.754;5.994;2022-10-16T12:18:32;16.70;99.90
59128;DHT22;44912;52.754;5.994;2022-10-16T12:20:58;16.60;99.90
59128;DHT22;44912;52.754;5.994;2022-10-16T12:23:29;16.60;99.90
59128;DHT22;44912;52.754;5.994;2022-10-16T12:25:57;16.60;99.90
59128;DHT22;44912;52.754;5.994;2022-10-16T12:28:27;16.70;99.90
59128;DHT22;44912;52.754;5.994;2022-10-16T12:30:56;16.70;99.90
59128;DHT22;44912;52.754;5.994;2022-10-16T12:33:31;16.90;99.90
59128;DHT22;44912;52.754;5.994;2022-10-16T12:35:59;17.00;99.90
59128;DHT22;44912;52.754;5.994;2022-10-16T12:38:36;17.10;99.90
59128;DHT22;44912;52.754;5.994;2022-10-16T12:41:05;17.10;99.90
59128;DHT22;44912;52.754;5.994;2022-10-16T12:43:45;17.10;99.90
59128;DHT22;44912;52.754;5.994;2022-10-16T12:48:38;17.10;99.90
59128;DHT22;44912;52.754;5.994;2022-10-16T12:51:24;17.10;99.90
59128;DHT22;44912;52.754;5.994;2022-10-16T12:56:54;17.00;99.90
59128;DHT22;44912;52.754;5.994;2022-10-16T12:59:43;17.00;99.90
59128;DHT22;44912;52.754;5.994;2022-10-16T13:16:08;17.10;99.90
59128;DHT22;44912;52.754;5.994;2022-10-16T13:21:51;17.10;99.90
59128;DHT22;44912;52.754;5.994;2022-10-16T13:27:26;17.00;99.90
59128;DHT22;44912;52.754;5.994;2022-10-16T13:30:02;16.90;99.90
59128;DHT22;44912;52.754;5.994;2022-10-16T13:32:33;16.90;99.90
59128;DHT22;44912;52.754;5.994;2022-10-16T13:34:59;17.00;99.90
59128;DHT22;44912;52.754;5.994;2022-10-16T13:37:26;17.00;99.90
59128;DHT22;44912;52.754;5.994;2022-10-16T13:40:09;16.90;99.90
59128;DHT22;44912;52.754;5.994;2022-10-16T13:42:42;16.90;99.90
59128;DHT22;44912;52.754;5.994;2022-10-16T13:45:21;16.90;99.90
59128;DHT22;44912;52.754;5.994;2022-10-16T13:47:47;16.80;99.90
59128;DHT22;44912;52.754;5.994;2022-10-16T13:50:16;16.80;99.90
59128;DHT22;44912;52.754;5.994;2022-10-16T13:52:42;16.80;99.90
59128;DHT22;44912;52.754;5.994;2022-10-16T13:55:16;16.80;99.90
59128;DHT22;44912;52.754;5.994;2022-10-16T13:57:42;16.90;99.90
59128;DHT22;44912;52.754;5.994;2022-10-16T14:00:19;16.90;99.90
59128;DHT22;44912;52.754;5.994;2022-10-16T14:02:58;16.90;99.90
59128;DHT22;44912;52.754;5.994;2022-10-16T14:05:26;16.90;99.90
59128;DHT22;44912;52.754;5.994;2022-10-16T14:07:53;16.90;99.90
59128;DHT22;44912;52.754;5.994;2022-10-16T14:10:30;16.80;99.90
59128;DHT22;44912;52.754;5.994;2022-10-16T14:13:02;16.80;99.90
59128;DHT22;44912;52.754;5.994;2022-10-16T14:15:29;16.80;99.90
59128;DHT22;44912;52.754;5.994;2022-10-16T14:17:56;16.80;99.90
59128;DHT22;44912;52.754;5.994;2022-10-16T14:20:26;16.70;99.90
59128;DHT22;44912;52.754;5.994;2022-10-16T14:23:04;16.70;99.90
59128;DHT22;44912;52.754;5.994;2022-10-16T14:25:31;16.70;99.90
59128;DHT22;44912;52.754;5.994;2022-10-16T14:27:58;16.60;99.90
59128;DHT22;44912;52.754;5.994;2022-10-16T14:30:25;16.60;99.90
59128;DHT22;44912;52.754;5.994;2022-10-16T14:35:30;16.50;99.90
59128;DHT22;44912;52.754;5.994;2022-10-16T14:37:58;16.50;99.90
59128;DHT22;44912;52.754;5.994;2022-10-16T14:40:27;16.50;99.90
59128;DHT22;44912;52.754;5.994;2022-10-16T14:42:53;16.40;99.90
59128;DHT22;44912;52.754;5.994;2022-10-16T14:45:26;16.40;99.90
59128;DHT22;44912;52.754;5.994;2022-10-16T14:47:54;16.40;99.90
59128;DHT22;44912;52.754;5.994;2022-10-16T14:50:21;16.40;99.90
59128;DHT22;44912;52.754;5.994;2022-10-16T14:52:47;16.40;99.90
59128;DHT22;44912;52.754;5.994;2022-10-16T14:55:13;16.40;99.90
59128;DHT22;44912;52.754;5.994;2022-10-16T14:57:39;16.40;99.90
59128;DHT22;44912;52.754;5.994;2022-10-16T15:00:23;16.40;99.90
59128;DHT22;44912;52.754;5.994;2022-10-16T15:02:50;16.40;99.90
59128;DHT22;44912;52.754;5.994;2022-10-16T15:05:18;16.30;99.90
59128;DHT22;44912;52.754;5.994;2022-10-16T15:07:45;16.30;99.90
59128;DHT22;44912;52.754;5.994;2022-10-16T15:10:12;16.20;99.90
59128;DHT22;44912;52.754;5.994;2022-10-16T15:12:38;16.20;99.90
59128;DHT22;44912;52.754;5.994;2022-10-16T15:17:48;16.10;99.90
59128;DHT22;44912;52.754;5.994;2022-10-16T15:20:17;16.00;99.90
59128;DHT22;44912;52.754;5.994;2022-10-16T15:22:43;15.90;99.90
59128;DHT22;44912;52.754;5.994;2022-10-16T15:27:45;15.90;99.90
59128;DHT22;44912;52.754;5.994;2022-10-16T15:30:10;15.90;99.90
59128;DHT22;44912;52.754;5.994;2022-10-16T15:32:36;15.70;99.90
59128;DHT22;44912;52.754;5.994;2022-10-16T15:35:02;15.60;99.90
59128;DHT22;44912;52.754;5.994;2022-10-16T15:37:27;15.50;99.90
59128;DHT22;44912;52.754;5.994;2022-10-16T15:39:53;15.50;99.90
59128;DHT22;44912;52.754;5.994;2022-10-16T15:42:18;15.40;99.90
59128;DHT22;44912;52.754;5.994;2022-10-16T15:44:44;15.30;99.90
59128;DHT22;44912;52.754;5.994;2022-10-16T15:47:09;15.20;99.90
59128;DHT22;44912;52.754;5.994;2022-10-16T15:49:35;15.30;99.90
59128;DHT22;44912;52.754;5.994;2022-10-16T15:52:00;15.30;99.90
59128;DHT22;44912;52.754;5.994;2022-10-16T15:54:26;15.40;99.90
59128;DHT22;44912;52.754;5.994;2022-10-16T15:56:51;15.40;99.90
59128;DHT22;44912;52.754;5.994;2022-10-16T15:59:17;15.40;99.90
59128;DHT22;44912;52.754;5.994;2022-10-16T16:01:42;15.40;99.90
59128;DHT22;44912;52.754;5.994;2022-10-16T16:04:08;15.40;99.90
59128;DHT22;44912;52.754;5.994;2022-10-16T16:06:33;15.40;99.90
59128;DHT22;44912;52.754;5.994;2022-10-16T16:09:03;15.30;99.90
59128;DHT22;44912;52.754;5.994;2022-10-16T16:11:28;15.20;99.90
59128;DHT22;44912;52.754;5.994;2022-10-16T16:13:57;15.20;99.90
59128;DHT22;44912;52.754;5.994;2022-10-16T16:16:22;15.10;99.90
59128;DHT22;44912;52.754;5.994;2022-10-16T16:18:52;15.10;99.90
59128;DHT22;44912;52.754;5.994;2022-10-16T16:21:18;15.10;99.90
59128;DHT22;44912;52.754;5.994;2022-10-16T16:23:43;15.00;99.90
59128;DHT22;44912;52.754;5.994;2022-10-16T16:26:15;15.00;99.90
59128;DHT22;44912;52.754;5.994;2022-10-16T16:28:42;14.90;99.90
59128;DHT22;44912;52.754;5.994;2022-10-16T16:31:08;14.90;99.90
59128;DHT22;44912;52.754;5.994;2022-10-16T16:33:34;14.80;99.90
59128;DHT22;44912;52.754;5.994;2022-10-16T16:36:02;14.80;99.90
59128;DHT22;44912;52.754;5.994;2022-10-16T16:38:29;14.70;99.90
59128;DHT22;44912;52.754;5.994;2022-10-16T16:40:55;14.60;99.90
59128;DHT22;44912;52.754;5.994;2022-10-16T16:43:27;14.40;99.90
59128;DHT22;44912;52.754;5.994;2022-10-16T16:45:54;14.40;99.90
59128;DHT22;44912;52.754;5.994;2022-10-16T16:48:22;14.30;99.90
59128;DHT22;44912;52.754;5.994;2022-10-16T16:50:48;14.30;99.90
59128;DHT22;44912;52.754;5.994;2022-10-16T16:53:14;14.20;99.90
59128;DHT22;44912;52.754;5.994;2022-10-16T16:55:39;14.10;99.90
59128;DHT22;44912;52.754;5.994;2022-10-16T16:58:05;14.10;99.90
59128;DHT22;44912;52.754;5.994;2022-10-16T17:00:30;14.10;99.90
59128;DHT22;44912;52.754;5.994;2022-10-16T17:02:57;14.00;99.90
59128;DHT22;44912;52.754;5.994;2022-10-16T17:05:23;14.00;99.90
59128;DHT22;44912;52.754;5.994;2022-10-16T17:07:48;13.90;99.90
59128;DHT22;44912;52.754;5.994;2022-10-16T17:10:14;13.80;99.90
59128;DHT22;44912;52.754;5.994;2022-10-16T17:12:40;13.60;99.90
59128;DHT22;44912;52.754;5.994;2022-10-16T17:15:07;13.40;99.90
59128;DHT22;44912;52.754;5.994;2022-10-16T17:17:32;13.30;99.90
59128;DHT22;44912;52.754;5.994;2022-10-16T17:19:58;13.30;99.90
59128;DHT22;44912;52.754;5.994;2022-10-16T17:22:24;13.20;99.90
59128;DHT22;44912;52.754;5.994;2022-10-16T17:24:50;13.20;99.90
59128;DHT22;44912;52.754;5.994;2022-10-16T17:27:17;13.20;99.90
59128;DHT22;44912;52.754;5.994;2022-10-16T17:29:43;13.20;99.90
59128;DHT22;44912;52.754;5.994;2022-10-16T17:32:08;13.20;99.90
59128;DHT22;44912;52.754;5.994;2022-10-16T17:34:34;13.10;99.90
59128;DHT22;44912;52.754;5.994;2022-10-16T17:37:00;13.10;99.90
59128;DHT22;44912;52.754;5.994;2022-10-16T17:39:26;13.10;99.90
59128;DHT22;44912;52.754;5.994;2022-10-16T17:41:52;13.10;99.90
59128;DHT22;44912;52.754;5.994;2022-10-16T17:44:18;13.20;99.90
59128;DHT22;44912;52.754;5.994;2022-10-16T17:46:48;13.10;99.90